Time;durP1;ratioP1;P1;durP2;ratioP2;P2;SDS_P1;SDS_P2;PMS_P1;PMS_P2;Temp;Humidity;BMP_temperature;BMP_pressure;BME280_temperature;BME280_humidity;BME280_pressure;Samples;Min_cycle;Max_cycle;Signal;HPM_P1;HPM_P2
2023/06/16 04:30:33;;;;;;;;;12.00;12.00;;;;;22.82;43.83;101343.22;5057991;27;45559;-84
2023/06/16 04:33:01;;;;;;;;;14.00;13.00;;;;;22.81;44.29;101349.69;5021521;28;45225;-82
2023/06/16 04:35:34;;;;;;;;;12.25;12.25;;;;;22.63;44.18;101312.00;5016389;28;45458;-82
2023/06/16 04:38:06;;;;;;;;;13.25;12.50;;;;;22.73;43.88;101325.72;5016245;28;45781;-81
2023/06/16 04:40:31;;;;;;;;;13.75;13.50;;;;;22.80;44.07;101348.81;5023967;28;45343;-82
2023/06/16 04:42:57;;;;;;;;;13.75;13.75;;;;;22.78;44.29;101341.78;5015931;28;46072;-81
2023/06/16 04:45:22;;;;;;;;;11.75;10.50;;;;;22.84;44.25;101349.44;5028949;28;45612;-79
2023/06/16 04:47:50;;;;;;;;;14.00;13.50;;;;;22.75;44.37;101329.22;5032405;28;45415;-80
2023/06/16 04:50:16;;;;;;;;;14.00;12.25;;;;;22.70;44.44;101325.16;5018905;28;45341;-82
2023/06/16 04:52:42;;;;;;;;;12.75;12.75;;;;;22.60;44.32;101312.28;4998173;28;45460;-83
2023/06/16 04:55:08;;;;;;;;;20.75;14.00;;;;;22.76;44.38;101333.69;5015386;28;45551;-81
2023/06/16 04:57:34;;;;;;;;;15.50;14.75;;;;;22.75;44.29;101326.50;5015782;28;46204;-82
2023/06/16 05:00:01;;;;;;;;;13.75;13.75;;;;;22.71;44.25;101311.34;4997530;28;45874;-82
2023/06/16 05:02:26;;;;;;;;;15.50;15.50;;;;;22.91;44.21;101345.16;4997719;28;45362;-81
2023/06/16 05:04:52;;;;;;;;;16.50;14.25;;;;;22.93;44.66;101341.28;4997676;28;46892;-82
2023/06/16 05:07:18;;;;;;;;;16.75;16.50;;;;;22.96;44.35;101341.03;5013886;28;46082;-81
2023/06/16 05:09:43;;;;;;;;;16.50;13.00;;;;;22.95;44.68;101342.03;5015387;28;45364;-82
2023/06/16 05:12:09;;;;;;;;;13.50;12.50;;;;;22.82;44.18;101307.69;5031994;28;45458;-84
2023/06/16 05:14:35;;;;;;;;;15.50;14.00;;;;;22.98;44.55;101338.13;5018230;28;45500;-84
2023/06/16 05:17:00;;;;;;;;;17.50;15.25;;;;;22.97;44.83;101329.06;4997087;28;48105;-79
2023/06/16 05:19:27;;;;;;;;;16.00;15.50;;;;;22.91;44.75;101329.63;5015727;28;45510;-81
2023/06/16 05:21:52;;;;;;;;;15.00;13.50;;;;;22.97;44.52;101333.66;4999477;28;45451;-81
2023/06/16 05:24:18;;;;;;;;;15.75;14.00;;;;;23.00;44.48;101327.94;5015117;28;45407;-76
2023/06/16 05:26:43;;;;;;;;;16.00;14.75;;;;;23.06;44.33;101330.09;5012609;28;45493;-77
2023/06/16 05:29:09;;;;;;;;;14.00;14.00;;;;;23.07;44.33;101320.03;5018819;28;45320;-77
2023/06/16 05:31:35;;;;;;;;;19.25;18.00;;;;;23.04;44.02;101318.47;5023866;28;45312;-81
2023/06/16 05:34:01;;;;;;;;;12.75;12.75;;;;;23.19;44.24;101332.63;5044463;28;45400;-77
2023/06/16 05:36:29;;;;;;;;;16.00;15.00;;;;;23.11;44.04;101305.09;5036786;28;46161;-79
2023/06/16 05:38:55;;;;;;;;;21.75;18.00;;;;;23.32;44.11;101328.66;5055194;28;45295;-82
2023/06/16 05:41:24;;;;;;;;;16.00;14.50;;;;;23.46;43.80;101332.88;5055120;28;45339;-76
2023/06/16 05:43:51;;;;;;;;;14.00;12.00;;;;;23.56;43.50;101333.78;5054531;28;45566;-76
2023/06/16 05:46:16;;;;;;;;;17.25;15.75;;;;;23.66;43.75;101339.28;5054568;28;46129;-80
2023/06/16 05:48:42;;;;;;;;;20.00;15.50;;;;;23.70;43.14;101327.06;5050001;28;45328;-77
2023/06/16 05:51:07;;;;;;;;;13.75;12.50;;;;;23.80;43.45;101321.63;5034841;28;45313;-75
2023/06/16 05:53:33;;;;;;;;;16.75;15.75;;;;;23.91;43.33;101326.94;5034377;28;45490;-78
2023/06/16 05:55:59;;;;;;;;;15.50;15.00;;;;;23.88;41.98;101305.34;5016235;28;59279;-77
2023/06/16 05:58:24;;;;;;;;;14.75;13.00;;;;;24.01;42.76;101320.47;5034481;28;45330;-78
2023/06/16 06:00:49;;;;;;;;;14.00;13.25;;;;;24.11;42.15;101321.38;5034835;28;45395;-79
2023/06/16 06:03:15;;;;;;;;;13.75;13.50;;;;;24.13;41.32;101307.53;5034090;28;45558;-79
2023/06/16 06:05:40;;;;;;;;;15.25;13.50;;;;;24.23;41.59;101319.38;5047676;28;45390;-78
2023/06/16 06:08:05;;;;;;;;;15.25;15.25;;;;;24.31;41.89;101322.28;5040887;28;45356;-79
2023/06/16 06:10:31;;;;;;;;;13.75;13.00;;;;;24.38;41.21;101320.66;5051506;28;45480;-78
2023/06/16 06:12:56;;;;;;;;;14.50;13.25;;;;;24.42;39.95;101321.22;5042107;28;45470;-79
2023/06/16 06:15:21;;;;;;;;;13.25;12.50;;;;;24.52;39.70;101327.56;5054540;28;45430;-81
2023/06/16 06:17:47;;;;;;;;;19.75;15.00;;;;;24.53;38.99;101329.31;5053346;28;45686;-80
2023/06/16 06:20:15;;;;;;;;;17.00;15.00;;;;;24.43;39.54;101314.75;5054879;28;48379;-79
2023/06/16 06:22:40;;;;;;;;;13.00;11.25;;;;;24.62;39.57;101325.69;5054220;28;45564;-80
2023/06/16 06:25:06;;;;;;;;;15.50;14.25;;;;;24.49;39.59;101301.34;5053494;28;46326;-82
2023/06/16 06:27:31;;;;;;;;;13.50;13.00;;;;;24.62;39.10;101319.34;5053693;28;45342;-82
2023/06/16 06:29:57;;;;;;;;;15.50;14.25;;;;;24.75;37.91;101341.84;5054401;28;45369;-86
2023/06/16 06:32:22;;;;;;;;;13.75;11.00;;;;;24.78;37.66;101338.78;5054069;28;45345;-86
2023/06/16 06:34:47;;;;;;;;;17.25;12.25;;;;;24.75;37.50;101325.38;5041362;28;45312;-84
2023/06/16 06:37:16;;;;;;;;;17.50;17.50;;;;;24.83;37.55;101337.34;5038487;28;45338;-85
2023/06/16 06:39:42;;;;;;;;;22.50;20.00;;;;;24.75;38.45;101314.41;5035124;28;45375;-82
2023/06/16 06:42:09;;;;;;;;;14.25;14.25;;;;;24.97;38.12;101346.16;5034861;28;45308;-85
2023/06/16 06:44:35;;;;;;;;;13.75;13.75;;;;;24.91;37.70;101327.50;5042217;28;45565;-83
2023/06/16 06:47:00;;;;;;;;;15.75;14.50;;;;;24.95;37.54;101324.34;5034210;28;45587;-86
2023/06/16 06:49:26;;;;;;;;;20.25;20.00;;;;;25.06;37.65;101334.28;5053067;28;45533;-85
2023/06/16 06:51:51;;;;;;;;;15.25;15.25;;;;;24.86;37.42;101286.78;5041603;28;46510;-82
2023/06/16 06:54:17;;;;;;;;;12.00;12.00;;;;;25.22;37.28;101356.47;5049252;28;45506;-81
2023/06/16 06:56:42;;;;;;;;;16.50;16.25;;;;;25.11;37.61;101326.44;5027646;28;45336;-85
2023/06/16 06:59:07;;;;;;;;;14.00;13.75;;;;;25.23;37.31;101350.81;5045981;28;45456;-83
2023/06/16 07:01:33;;;;;;;;;12.50;12.00;;;;;25.22;36.98;101346.34;5051592;28;45346;-83
2023/06/16 07:03:58;;;;;;;;;17.00;16.75;;;;;25.36;36.60;101371.56;5033840;28;46556;-82
2023/06/16 07:06:23;;;;;;;;;16.00;14.25;;;;;25.40;36.51;101373.88;5035071;28;45274;-83
2023/06/16 07:08:49;;;;;;;;;14.50;14.50;;;;;25.43;36.06;101379.06;5055957;28;45481;-81
2023/06/16 07:11:14;;;;;;;;;17.00;13.25;;;;;25.47;36.44;101377.72;5043269;28;46628;-82
2023/06/16 07:13:39;;;;;;;;;13.75;13.75;;;;;25.45;36.93;101379.75;5040376;28;45257;-80
2023/06/16 07:16:05;;;;;;;;;15.50;14.25;;;;;25.58;36.45;101387.66;5050954;28;45461;-80
2023/06/16 07:18:30;;;;;;;;;15.75;13.00;;;;;25.59;36.16;101387.56;5040812;28;45443;-81
2023/06/16 07:20:55;;;;;;;;;14.25;13.50;;;;;25.66;36.20;101386.94;5035974;28;46462;-82
2023/06/16 07:23:21;;;;;;;;;17.00;13.00;;;;;25.53;36.11;101362.53;5053880;28;45653;-80
2023/06/16 07:25:46;;;;;;;;;16.50;14.50;;;;;25.76;35.99;101388.63;5052160;28;45412;-78
2023/06/16 07:28:12;;;;;;;;;18.25;16.50;;;;;25.70;35.53;101369.13;5033794;28;45499;-79
2023/06/16 07:30:37;;;;;;;;;17.75;16.25;;;;;25.74;35.41;101373.31;5034027;28;45564;-81
2023/06/16 07:33:02;;;;;;;;;17.75;16.75;;;;;25.80;36.11;101372.69;5035101;28;46350;-81
2023/06/16 07:35:28;;;;;;;;;15.75;14.00;;;;;25.94;35.98;101391.41;5033483;28;45954;-80
2023/06/16 07:37:53;;;;;;;;;19.50;18.25;;;;;25.97;35.35;101386.44;5037789;28;45747;-80
2023/06/16 07:40:19;;;;;;;;;17.00;15.50;;;;;25.97;35.60;101375.47;5051063;28;49938;-79
2023/06/16 07:42:45;;;;;;;;;13.00;13.00;;;;;25.98;35.13;101373.59;5056751;28;46060;-78
2023/06/16 07:45:10;;;;;;;;;14.75;14.75;;;;;26.12;34.61;101391.41;5056756;28;45498;-79
2023/06/16 07:47:36;;;;;;;;;15.00;12.75;;;;;26.17;35.30;101391.81;5039480;28;45895;-80
2023/06/16 07:50:01;;;;;;;;;22.00;17.00;;;;;26.20;34.57;101391.53;5035966;28;45376;-80
2023/06/16 07:52:27;;;;;;;;;14.75;13.75;;;;;26.17;34.73;101386.34;5036437;28;45808;-79
2023/06/16 07:54:52;;;;;;;;;10.50;10.50;;;;;26.13;34.13;101380.28;5036817;28;45614;-80
2023/06/16 07:57:17;;;;;;;;;17.25;15.25;;;;;26.17;35.08;101378.09;5036946;28;45350;-79
2023/06/16 07:59:43;;;;;;;;;18.75;18.75;;;;;26.22;33.57;101383.97;5036825;28;53346;-81
2023/06/16 08:02:08;;;;;;;;;14.00;14.00;;;;;26.33;33.61;101398.38;5036883;28;46564;-78
2023/06/16 08:04:33;;;;;;;;;18.00;15.00;;;;;26.23;33.84;101367.31;5054827;28;45356;-80
2023/06/16 08:06:59;;;;;;;;;19.25;17.00;;;;;26.35;33.95;101381.75;5025300;28;45344;-80
2023/06/16 08:09:25;;;;;;;;;15.75;13.25;;;;;26.43;34.11;101389.19;5042473;28;45397;-81
2023/06/16 08:11:50;;;;;;;;;16.50;13.50;;;;;26.31;33.32;101375.69;5050420;28;45544;-81
2023/06/16 08:14:16;;;;;;;;;26.00;19.25;;;;;26.34;33.66;101380.88;5037567;28;45388;-77
2023/06/16 08:16:41;;;;;;;;;14.00;12.00;;;;;26.41;33.45;101383.00;5037092;28;45489;-79
2023/06/16 08:19:08;;;;;;;;;16.00;14.75;;;;;26.42;34.07;101369.09;5056053;28;45420;-77
2023/06/16 08:21:34;;;;;;;;;14.50;13.50;;;;;26.41;33.37;101355.50;5054677;28;47072;-79
2023/06/16 08:24:01;;;;;;;;;16.75;15.00;;;;;26.59;33.28;101378.34;5052541;28;45465;-80
2023/06/16 08:26:27;;;;;;;;;18.75;14.75;;;;;26.58;32.90;101362.88;5035880;28;45316;-80
2023/06/16 08:28:52;;;;;;;;;12.00;10.25;;;;;26.65;32.33;101363.94;5054899;28;45507;-79
2023/06/16 08:31:18;;;;;;;;;14.75;13.75;;;;;26.71;30.87;101372.44;5036333;28;45455;-77
2023/06/16 08:33:44;;;;;;;;;14.75;14.75;;;;;26.66;31.02;101352.78;5043629;28;45511;-83
2023/06/16 08:36:10;;;;;;;;;12.50;10.00;;;;;26.81;31.51;101371.47;5048559;28;45326;-80
2023/06/16 08:38:36;;;;;;;;;10.75;9.25;;;;;26.86;31.65;101369.13;5051111;28;45541;-77
2023/06/16 08:41:06;;;;;;;;;14.75;13.50;;;;;26.89;31.42;101372.41;5035519;28;46237;-81
2023/06/16 08:43:36;;;;;;;;;9.75;9.75;;;;;26.91;31.64;101362.13;5055192;28;45288;-82
2023/06/16 08:46:05;;;;;;;;;13.75;13.75;;;;;26.97;31.91;101363.34;5037624;28;45484;-80
2023/06/16 08:48:34;;;;;;;;;8.75;8.00;;;;;26.97;30.31;101364.22;5052088;28;45546;-79
2023/06/16 08:50:59;;;;;;;;;12.00;12.00;;;;;27.00;29.87;101363.03;5035532;28;45392;-79
2023/06/16 08:53:31;;;;;;;;;12.25;10.50;;;;;27.07;30.61;101361.38;5038622;28;45457;-78
2023/06/16 08:55:58;;;;;;;;;9.50;9.50;;;;;27.05;30.13;101356.03;5025190;28;45286;-79
2023/06/16 08:58:25;;;;;;;;;13.50;10.25;;;;;27.06;30.02;101355.00;5051003;28;45236;-81
2023/06/16 09:00:51;;;;;;;;;15.00;11.00;;;;;27.08;30.16;101354.84;5050712;28;46416;-76
2023/06/16 09:03:19;;;;;;;;;12.25;10.50;;;;;27.04;30.50;101332.31;5036742;28;45415;-79
2023/06/16 09:05:46;;;;;;;;;12.25;12.25;;;;;27.24;29.47;101354.06;5055601;28;45286;-77
2023/06/16 09:08:11;;;;;;;;;10.50;9.25;;;;;27.20;29.53;101345.28;5050208;28;45584;-76
2023/06/16 09:10:37;;;;;;;;;15.00;12.50;;;;;27.27;29.95;101349.13;5045013;28;45308;-76
2023/06/16 09:13:02;;;;;;;;;14.50;12.00;;;;;27.24;29.73;101338.41;5046055;28;45319;-79
2023/06/16 09:15:28;;;;;;;;;13.50;10.25;;;;;27.36;29.22;101356.38;5035111;28;45237;-78
2023/06/16 09:17:56;;;;;;;;;11.75;11.00;;;;;27.28;29.49;101336.22;5034736;28;45356;-78
2023/06/16 09:20:23;;;;;;;;;11.00;11.00;;;;;27.35;29.02;101342.78;5016935;28;47236;-78
2023/06/16 09:22:49;;;;;;;;;13.00;11.75;;;;;27.41;29.31;101340.22;5016672;28;45392;-77
2023/06/16 09:25:16;;;;;;;;;16.25;11.50;;;;;27.52;29.07;101350.09;5032990;28;45531;-77
2023/06/16 09:27:50;;;;;;;;;9.50;8.00;;;;;27.54;29.19;101356.34;5034602;28;45324;-81
2023/06/16 09:30:18;;;;;;;;;8.50;8.50;;;;;27.60;28.73;101350.16;5016746;28;46351;-77
2023/06/16 09:32:49;;;;;;;;;10.00;9.75;;;;;27.63;28.10;101354.47;5043892;28;45383;-81
2023/06/16 09:35:25;;;;;;;;;13.75;10.75;;;;;27.46;28.60;101321.34;5023580;28;45494;-80
2023/06/16 09:37:52;;;;;;;;;11.00;10.00;;;;;27.66;28.02;101345.88;5043349;28;45425;-77
2023/06/16 09:40:20;;;;;;;;;8.75;7.75;;;;;27.66;28.66;101338.47;5054317;28;46322;-81
2023/06/16 09:42:48;;;;;;;;;10.00;9.50;;;;;27.69;28.29;101348.28;5054735;28;45406;-78
2023/06/16 09:45:16;;;;;;;;;9.75;8.00;;;;;27.66;27.98;101334.84;5054861;28;45472;-78
2023/06/16 09:47:45;;;;;;;;;10.50;9.75;;;;;27.67;27.54;101328.31;5039722;28;45426;-78
2023/06/16 09:50:25;;;;;;;;;10.50;9.50;;;;;27.75;28.17;101342.13;5052286;28;46416;-77
2023/06/16 09:52:53;;;;;;;;;12.75;11.25;;;;;27.76;27.57;101332.81;5034653;28;45321;-74
2023/06/16 09:55:18;;;;;;;;;14.00;14.00;;;;;27.81;28.33;101335.94;5052352;28;45422;-75
2023/06/16 09:57:45;;;;;;;;;11.75;11.75;;;;;27.81;27.67;101330.44;5052214;28;45709;-75
2023/06/16 10:00:15;;;;;;;;;10.50;10.50;;;;;27.86;27.28;101328.03;5054393;28;45531;-75
2023/06/16 10:02:49;;;;;;;;;14.75;11.50;;;;;27.87;27.26;101327.00;5053813;28;45632;-73
2023/06/16 10:05:18;;;;;;;;;11.75;9.25;;;;;27.97;27.20;101337.88;5054256;28;45357;-76
2023/06/16 10:07:58;;;;;;;;;11.00;11.00;;;;;28.00;27.52;101332.00;5053893;28;45404;-78
2023/06/16 10:10:27;;;;;;;;;13.75;13.00;;;;;28.03;27.10;101328.94;5049481;28;45511;-75
2023/06/16 10:12:54;;;;;;;;;9.00;9.00;;;;;28.07;27.68;101333.09;5035256;28;45304;-79
2023/06/16 10:15:25;;;;;;;;;10.75;10.75;;;;;28.09;27.70;101331.00;5044746;28;45362;-77
2023/06/16 10:17:53;;;;;;;;;11.25;11.25;;;;;28.14;26.83;101326.72;5036158;28;46156;-80
2023/06/16 10:20:22;;;;;;;;;7.50;7.50;;;;;28.11;26.63;101317.91;5044155;28;45961;-81
2023/06/16 10:22:48;;;;;;;;;11.75;10.00;;;;;28.21;27.32;101319.53;5048551;28;45449;-79
2023/06/16 10:25:13;;;;;;;;;13.25;10.25;;;;;28.23;26.91;101319.34;5053758;28;45556;-79
2023/06/16 10:27:41;;;;;;;;;11.50;10.00;;;;;28.15;26.56;101297.25;5036716;28;45482;-79
2023/06/16 10:30:09;;;;;;;;;14.00;12.00;;;;;28.32;26.73;101321.09;5033944;28;45497;-77
2023/06/16 10:32:38;;;;;;;;;10.50;10.00;;;;;28.30;26.33;101314.88;5043477;28;45418;-76
2023/06/16 10:35:07;;;;;;;;;11.00;8.75;;;;;28.39;27.15;101318.50;5015065;28;45415;-77
2023/06/16 10:37:32;;;;;;;;;8.00;8.00;;;;;28.43;26.38;101317.09;5030136;28;45557;-77
2023/06/16 10:40:04;;;;;;;;;12.25;12.25;;;;;28.32;26.39;101300.91;5033579;28;46293;-78
2023/06/16 10:42:34;;;;;;;;;12.75;11.75;;;;;28.30;26.32;101303.84;5042077;28;45427;-77
2023/06/16 10:45:26;;;;;;;;;7.75;6.75;;;;;28.46;25.97;101325.91;5052448;28;45423;-78
2023/06/16 10:48:01;;;;;;;;;10.00;9.75;;;;;28.48;26.21;101323.84;5052096;28;45592;-78
2023/06/16 10:50:39;;;;;;;;;11.75;10.00;;;;;28.46;26.19;101306.59;5043382;28;45773;-79
2023/06/16 10:53:24;;;;;;;;;11.25;11.25;;;;;28.46;26.85;101316.75;5050941;28;45446;-78
2023/06/16 10:56:05;;;;;;;;;12.50;12.50;;;;;28.38;24.88;101303.84;5025906;28;45581;-77
2023/06/16 10:58:32;;;;;;;;;16.25;13.75;;;;;28.39;26.40;101289.03;5050989;28;45399;-82
2023/06/16 11:01:01;;;;;;;;;15.00;10.75;;;;;28.60;26.03;101311.41;5045064;28;45989;-84
2023/06/16 11:03:45;;;;;;;;;12.25;10.75;;;;;28.56;26.79;101301.78;5053442;28;45282;-81
2023/06/16 11:06:12;;;;;;;;;12.25;12.00;;;;;28.62;26.48;101291.94;5048518;28;45692;-84
2023/06/16 11:09:10;;;;;;;;;13.25;11.75;;;;;28.67;25.62;101275.69;5041071;28;45813;-84
2023/06/16 11:11:36;;;;;;;;;10.00;9.75;;;;;28.60;25.71;101263.63;5009399;28;45645;-83
2023/06/16 11:14:02;;;;;;;;;10.50;9.00;;;;;28.66;25.76;101259.34;5045027;28;45296;-83
2023/06/16 11:16:28;;;;;;;;;12.00;10.75;;;;;28.82;25.23;101273.13;5054789;28;45470;-83
2023/06/16 11:18:55;;;;;;;;;12.00;10.75;;;;;28.93;25.12;101290.16;5018995;28;45550;-82
2023/06/16 11:21:24;;;;;;;;;11.50;10.25;;;;;29.04;25.44;101290.84;5037370;28;46498;-82
2023/06/16 11:23:49;;;;;;;;;17.50;15.00;;;;;29.00;24.72;101275.69;5037078;28;45385;-82
2023/06/16 11:26:17;;;;;;;;;13.00;13.00;;;;;29.08;25.02;101275.66;5037011;28;45244;-82
2023/06/16 11:28:43;;;;;;;;;13.00;11.00;;;;;29.27;25.03;101302.81;5035498;28;46257;-83
2023/06/16 11:31:13;;;;;;;;;14.00;10.50;;;;;29.32;25.11;101303.16;5042067;28;46014;-81
2023/06/16 11:33:39;;;;;;;;;10.00;10.00;;;;;29.34;24.47;101307.50;5056685;28;45292;-82
2023/06/16 11:36:18;;;;;;;;;11.00;10.25;;;;;29.38;24.52;101304.38;5057000;28;45453;-80
2023/06/16 11:38:45;;;;;;;;;13.00;12.00;;;;;29.44;25.19;101304.50;5056360;28;45399;-81
2023/06/16 11:41:19;;;;;;;;;11.50;10.00;;;;;29.49;24.59;101296.56;5056831;28;45465;-83
2023/06/16 11:43:45;;;;;;;;;13.50;13.50;;;;;29.51;24.58;101291.72;5039051;28;45513;-82
2023/06/16 11:46:11;;;;;;;;;13.25;12.75;;;;;29.45;24.64;101272.22;5057144;28;45464;-81
2023/06/16 11:48:40;;;;;;;;;9.50;9.00;;;;;29.64;24.32;101300.28;5056452;28;45552;-81
2023/06/16 11:51:06;;;;;;;;;13.50;12.00;;;;;29.56;24.29;101269.94;5055454;28;47160;-81
2023/06/16 11:53:32;;;;;;;;;14.50;13.50;;;;;29.70;24.48;101284.88;5056613;28;45350;-81
2023/06/16 11:56:04;;;;;;;;;15.25;13.00;;;;;29.73;23.95;101268.78;5057028;28;45355;-84
2023/06/16 11:58:29;;;;;;;;;17.00;12.00;;;;;29.83;24.58;101271.34;5056078;28;45449;-84
2023/06/16 12:01:00;;;;;;;;;8.00;7.00;;;;;29.89;24.61;101280.78;5052703;28;46176;-78
2023/06/16 12:03:33;;;;;;;;;13.00;13.00;;;;;29.86;24.98;101265.41;5016914;28;45477;-74
2023/06/16 12:06:01;;;;;;;;;15.50;11.50;;;;;29.90;24.74;101275.06;5054315;28;45463;-73
2023/06/16 12:08:48;;;;;;;;;7.75;7.75;;;;;29.88;24.58;101266.09;5037528;28;45503;-73
2023/06/16 12:11:21;;;;;;;;;9.50;8.50;;;;;29.79;23.58;101256.13;5055644;28;45622;-74
2023/06/16 12:13:47;;;;;;;;;16.75;13.25;;;;;29.82;24.61;101263.22;5055456;28;45458;-75
2023/06/16 12:16:13;;;;;;;;;15.25;14.50;;;;;29.82;24.28;101264.06;5055795;28;45487;-73
2023/06/16 12:18:38;;;;;;;;;10.75;9.75;;;;;29.85;24.26;101260.09;5055663;28;45351;-76
2023/06/16 12:21:21;;;;;;;;;15.75;12.50;;;;;29.84;22.91;101250.06;5055392;28;45385;-75
2023/06/16 12:23:52;;;;;;;;;12.00;10.50;;;;;29.78;24.20;101237.81;5055048;28;45418;-74
2023/06/16 12:26:31;;;;;;;;;12.50;10.50;;;;;29.85;24.37;101260.09;5055915;28;45366;-72
2023/06/16 12:28:58;;;;;;;;;14.75;13.25;;;;;29.75;23.76;101229.91;5037507;28;45560;-73
2023/06/16 12:31:28;;;;;;;;;16.25;13.00;;;;;29.93;24.20;101248.97;5055425;28;46189;-74
2023/06/16 12:33:55;;;;;;;;;9.50;9.50;;;;;29.96;23.76;101255.00;5055250;28;45345;-73
2023/06/16 12:36:22;;;;;;;;;11.50;11.50;;;;;29.93;23.63;101238.78;5055328;28;45520;-73
2023/06/16 12:38:47;;;;;;;;;13.00;12.50;;;;;30.00;23.40;101237.03;5055298;28;45498;-74
2023/06/16 12:41:17;;;;;;;;;10.25;10.25;;;;;30.00;23.62;101223.19;5055387;28;45453;-74
2023/06/16 12:43:47;;;;;;;;;11.25;11.25;;;;;30.09;23.92;101232.28;5055503;28;45300;-74
2023/06/16 12:46:12;;;;;;;;;14.00;13.25;;;;;30.21;24.31;101235.44;5055862;28;45376;-74
2023/06/16 12:48:38;;;;;;;;;12.50;12.50;;;;;30.29;23.82;101240.91;5054725;28;45484;-75
2023/06/16 12:51:03;;;;;;;;;10.25;9.75;;;;;30.37;24.09;101238.94;5055345;28;46013;-74
2023/06/16 12:53:28;;;;;;;;;15.75;13.50;;;;;30.37;23.65;101216.78;5055280;28;45339;-74
2023/06/16 12:55:54;;;;;;;;;14.00;13.25;;;;;30.56;23.39;101234.81;5055597;28;46045;-76
2023/06/16 12:58:19;;;;;;;;;15.25;12.25;;;;;30.60;22.90;101233.41;5055538;28;45507;-76
2023/06/16 13:00:45;;;;;;;;;12.75;11.25;;;;;30.65;22.93;101228.13;5054914;28;45919;-78
2023/06/16 13:03:10;;;;;;;;;14.50;13.25;;;;;30.69;23.10;101226.72;5055219;28;45416;-78
2023/06/16 13:05:35;;;;;;;;;7.50;7.50;;;;;30.74;22.53;101220.59;5055419;28;45483;-80
2023/06/16 13:08:02;;;;;;;;;16.75;15.00;;;;;30.78;22.31;101230.25;5055611;28;45481;-78
2023/06/16 13:10:27;;;;;;;;;10.25;10.25;;;;;30.76;23.17;101212.97;5055506;28;46771;-79
2023/06/16 13:12:53;;;;;;;;;9.00;9.00;;;;;30.93;22.34;101236.66;5037224;28;45280;-80
2023/06/16 13:15:18;;;;;;;;;11.75;11.75;;;;;30.92;22.49;101232.16;5055620;28;45562;-80
2023/06/16 13:17:44;;;;;;;;;16.25;11.25;;;;;30.93;22.37;101208.09;5023167;28;45494;-79
2023/06/16 13:20:10;;;;;;;;;15.50;15.25;;;;;31.11;22.62;101228.00;5054706;28;46444;-83
2023/06/16 13:22:36;;;;;;;;;10.50;10.50;;;;;31.14;22.22;101213.75;5054754;28;45484;-80
2023/06/16 13:25:01;;;;;;;;;11.25;11.25;;;;;31.16;22.39;101203.34;5054550;28;45464;-79
2023/06/16 13:27:27;;;;;;;;;11.75;11.00;;;;;31.19;22.10;101203.81;5055010;28;45328;-79
2023/06/16 13:29:52;;;;;;;;;13.75;13.75;;;;;31.37;21.71;101227.47;5054558;28;46540;-80
2023/06/16 13:32:18;;;;;;;;;18.00;13.50;;;;;31.32;21.34;101216.97;5020586;28;45537;-78
2023/06/16 13:34:43;;;;;;;;;10.75;10.75;;;;;31.27;21.89;101210.28;5027731;28;45487;-79
2023/06/16 13:37:08;;;;;;;;;13.25;12.50;;;;;31.34;21.56;101228.72;5032966;28;45288;-80
2023/06/16 13:39:34;;;;;;;;;11.25;11.25;;;;;31.35;21.77;101224.03;5015376;28;45309;-80
2023/06/16 13:41:59;;;;;;;;;17.00;12.75;;;;;31.35;21.96;101210.19;5015034;28;45484;-78
2023/06/16 13:44:24;;;;;;;;;10.25;10.00;;;;;31.49;21.79;101212.91;5015192;28;45395;-79
2023/06/16 13:46:50;;;;;;;;;13.75;12.25;;;;;31.34;21.60;101201.00;5023697;28;46624;-79
2023/06/16 13:49:15;;;;;;;;;10.50;9.00;;;;;31.37;21.93;101203.41;5026546;28;45335;-79
2023/06/16 13:51:43;;;;;;;;;11.50;11.50;;;;;31.42;21.63;101205.56;5014491;28;45305;-78
2023/06/16 13:54:11;;;;;;;;;9.75;9.75;;;;;31.40;21.80;101183.59;5015041;28;45412;-79
2023/06/16 13:56:37;;;;;;;;;14.25;13.50;;;;;31.52;21.12;101200.59;5015907;28;49955;-80
2023/06/16 13:59:03;;;;;;;;;7.25;7.25;;;;;31.63;21.70;101191.78;5034409;28;46215;-79
2023/06/16 14:01:28;;;;;;;;;15.50;13.50;;;;;31.61;21.50;101173.59;5014438;28;46124;-79
2023/06/16 14:03:53;;;;;;;;;15.50;13.75;;;;;31.77;21.35;101190.00;5014052;28;45460;-81
2023/06/16 14:06:19;;;;;;;;;14.75;10.75;;;;;31.78;21.65;101175.09;4998762;28;46129;-79
2023/06/16 14:08:44;;;;;;;;;13.50;12.00;;;;;31.99;21.72;101188.06;5034622;28;46264;-80
2023/06/16 14:11:09;;;;;;;;;10.50;10.25;;;;;32.09;21.67;101183.91;5007856;28;45524;-78
2023/06/16 14:13:35;;;;;;;;;14.00;12.00;;;;;32.19;21.56;101180.81;4996849;28;45475;-79
2023/06/16 14:16:00;;;;;;;;;16.50;14.25;;;;;32.19;20.76;101166.94;5014531;28;45482;-81
2023/06/16 14:18:26;;;;;;;;;13.75;12.75;;;;;32.21;21.06;101181.47;5014379;28;46137;-80
2023/06/16 14:20:51;;;;;;;;;12.50;9.50;;;;;32.27;20.82;101181.53;5029216;28;45449;-79
2023/06/16 14:23:16;;;;;;;;;9.00;8.00;;;;;32.35;20.85;101174.09;5034922;28;45482;-80
2023/06/16 14:25:46;;;;;;;;;12.75;10.75;;;;;32.36;21.22;101176.69;5034590;28;45718;-81
2023/06/16 14:28:14;;;;;;;;;13.75;12.00;;;;;32.35;21.55;101177.75;5035037;28;45966;-79
2023/06/16 14:30:40;;;;;;;;;10.25;10.25;;;;;32.42;21.04;101181.41;5035526;28;45473;-80
2023/06/16 14:33:06;;;;;;;;;9.50;9.50;;;;;32.40;21.58;101157.72;5052754;28;45379;-79
2023/06/16 14:35:32;;;;;;;;;11.25;11.25;;;;;32.49;21.07;101174.03;5018820;28;47455;-78
2023/06/16 14:37:57;;;;;;;;;13.25;13.25;;;;;32.25;21.21;101153.13;5034024;28;45512;-82
2023/06/16 14:40:22;;;;;;;;;11.50;10.50;;;;;32.20;21.97;101161.22;5033434;28;50403;-76
2023/06/16 14:42:48;;;;;;;;;12.75;11.50;;;;;32.18;23.03;101170.78;5039736;28;45264;-74
2023/06/16 14:45:13;;;;;;;;;15.75;12.00;;;;;32.12;21.23;101171.56;5033311;28;51019;-73
2023/06/16 14:47:38;;;;;;;;;12.75;10.00;;;;;32.07;22.18;101165.75;5042591;28;45347;-73
2023/06/16 14:50:04;;;;;;;;;17.75;13.75;;;;;32.01;22.20;101161.00;5053923;28;47016;-73
2023/06/16 14:52:29;;;;;;;;;11.75;11.00;;;;;31.92;22.01;101161.13;5037487;28;45462;-73
2023/06/16 14:54:55;;;;;;;;;13.75;11.75;;;;;31.90;22.23;101163.25;5037214;28;45363;-73
2023/06/16 14:57:21;;;;;;;;;11.50;11.00;;;;;31.93;22.45;101150.91;5036988;28;49510;-73
2023/06/16 14:59:46;;;;;;;;;11.00;10.00;;;;;32.00;21.83;101165.69;5036929;28;45454;-74
2023/06/16 15:02:11;;;;;;;;;10.75;10.25;;;;;32.01;21.87;101158.22;5036620;28;45406;-73
2023/06/16 15:04:37;;;;;;;;;10.00;10.00;;;;;32.07;21.62;101152.72;5036398;28;45515;-73
2023/06/16 15:07:02;;;;;;;;;15.00;11.50;;;;;32.15;21.73;101157.28;5052877;28;51014;-72
2023/06/16 15:09:28;;;;;;;;;12.25;11.00;;;;;32.18;22.23;101157.75;5043414;28;45318;-73
2023/06/16 15:11:54;;;;;;;;;12.00;12.00;;;;;32.23;20.78;101149.72;5051577;28;45537;-74
2023/06/16 15:14:19;;;;;;;;;12.50;11.00;;;;;32.34;21.65;101151.03;5041922;28;45391;-74
2023/06/16 15:16:44;;;;;;;;;12.00;10.75;;;;;32.43;21.19;101133.19;5036148;28;45538;-76
2023/06/16 15:19:10;;;;;;;;;9.00;9.00;;;;;32.51;21.08;101137.72;5039427;28;45419;-74
2023/06/16 15:21:35;;;;;;;;;11.00;11.00;;;;;32.52;21.13;101131.97;5056567;28;45382;-74
2023/06/16 15:24:01;;;;;;;;;13.50;13.50;;;;;32.48;21.20;101141.78;5044027;28;45394;-74
2023/06/16 15:26:26;;;;;;;;;12.75;12.75;;;;;32.50;21.90;101130.44;5036835;28;45911;-75
2023/06/16 15:28:52;;;;;;;;;16.75;13.25;;;;;32.52;21.58;101126.41;5037049;28;45203;-73
2023/06/16 15:31:17;;;;;;;;;9.50;8.75;;;;;32.63;21.61;101139.72;5036751;28;45483;-78
2023/06/16 15:33:43;;;;;;;;;12.25;11.25;;;;;32.68;20.90;101130.75;5043798;28;45375;-77
2023/06/16 15:36:08;;;;;;;;;14.75;12.50;;;;;32.73;21.01;101122.72;5056576;28;46167;-74
2023/06/16 15:38:34;;;;;;;;;15.75;11.00;;;;;32.89;21.76;101127.06;5044601;28;45431;-78
2023/06/16 15:41:00;;;;;;;;;11.00;11.00;;;;;33.02;21.98;101122.41;5036921;28;45393;-75